Terminal Aerodrome Forecast
Issued by NWS

Home | Current Version | Previous Version | Text Only | Print | Product List | Glossary On
Versions: 1 2 3 4 5 6 7 8 9 10 11 12 13 14 15 16 17 18 19 20 21 22 23 24 25 26 27 28 29 30 31 32 33
923
FTUS41 KOKX 281911 AAA
TAFHPN
TAF AMD
KHPN 281911Z 2819/2918 17011KT P6SM FEW050 SCT250
     FM282300 18005KT P6SM SCT250
     FM290600 VRB03KT P6SM OVC150
     FM290800 VRB03KT 2SM BR VCSH SCT005 BKN040
      TEMPO 2908/2912 4SM SHRA BR BKN005 BKN040
     FM291400 24007KT P6SM FEW025 BKN100
     FM291700 25011G17KT P6SM FEW040 BKN250
      AMD NOT SKED=

USA.gov is the U.S. government's official web portal to all federal, state and local government web resources and services.